sensor_id;sensor_type;location;lat;lon;timestamp;P1;durP1;ratioP1;P2;durP2;ratioP2
32734;SDS011;19112;51.076;3.706;2023-12-29T00:03:44;30.40;;;9.77;;
32734;SDS011;19112;51.076;3.706;2023-12-29T00:09:30;22.20;;;4.70;;
32734;SDS011;19112;51.076;3.706;2023-12-29T00:12:12;24.08;;;4.00;;
32734;SDS011;19112;51.076;3.706;2023-12-29T00:17:54;24.00;;;4.97;;
32734;SDS011;19112;51.076;3.706;2023-12-29T00:21:22;26.35;;;6.03;;
32734;SDS011;19112;51.076;3.706;2023-12-29T00:23:52;23.75;;;5.32;;
32734;SDS011;19112;51.076;3.706;2023-12-29T00:30:04;30.42;;;5.22;;
32734;SDS011;19112;51.076;3.706;2023-12-29T00:33:42;21.38;;;3.50;;
32734;SDS011;19112;51.076;3.706;2023-12-29T00:36:15;18.30;;;4.10;;
32734;SDS011;19112;51.076;3.706;2023-12-29T00:39:25;22.58;;;4.22;;
32734;SDS011;19112;51.076;3.706;2023-12-29T00:42:27;21.88;;;3.88;;
32734;SDS011;19112;51.076;3.706;2023-12-29T00:44:56;17.70;;;3.60;;
32734;SDS011;19112;51.076;3.706;2023-12-29T00:47:36;22.48;;;4.05;;
32734;SDS011;19112;51.076;3.706;2023-12-29T00:50:30;24.08;;;4.32;;
32734;SDS011;19112;51.076;3.706;2023-12-29T00:53:20;22.02;;;3.38;;
32734;SDS011;19112;51.076;3.706;2023-12-29T00:58:37;20.80;;;3.25;;
32734;SDS011;19112;51.076;3.706;2023-12-29T01:01:07;20.83;;;3.72;;
32734;SDS011;19112;51.076;3.706;2023-12-29T01:03:38;20.63;;;3.05;;
32734;SDS011;19112;51.076;3.706;2023-12-29T01:17:51;19.65;;;3.55;;
32734;SDS011;19112;51.076;3.706;2023-12-29T01:23:32;23.25;;;3.35;;
32734;SDS011;19112;51.076;3.706;2023-12-29T01:26:21;21.98;;;3.38;;
32734;SDS011;19112;51.076;3.706;2023-12-29T01:29:11;22.88;;;3.22;;
32734;SDS011;19112;51.076;3.706;2023-12-29T01:31:45;22.20;;;3.55;;
32734;SDS011;19112;51.076;3.706;2023-12-29T01:37:21;25.35;;;3.20;;
32734;SDS011;19112;51.076;3.706;2023-12-29T01:39:48;22.35;;;3.67;;
32734;SDS011;19112;51.076;3.706;2023-12-29T01:42:19;19.48;;;2.88;;
32734;SDS011;19112;51.076;3.706;2023-12-29T01:44:56;15.85;;;3.08;;
32734;SDS011;19112;51.076;3.706;2023-12-29T01:47:50;23.52;;;3.03;;
32734;SDS011;19112;51.076;3.706;2023-12-29T01:50:48;19.33;;;3.63;;
32734;SDS011;19112;51.076;3.706;2023-12-29T01:53:42;18.60;;;2.80;;
32734;SDS011;19112;51.076;3.706;2023-12-29T01:56:18;16.50;;;3.38;;
32734;SDS011;19112;51.076;3.706;2023-12-29T01:59:16;16.05;;;2.83;;
32734;SDS011;19112;51.076;3.706;2023-12-29T02:02:05;16.75;;;3.10;;
32734;SDS011;19112;51.076;3.706;2023-12-29T02:04:31;17.40;;;2.83;;
32734;SDS011;19112;51.076;3.706;2023-12-29T02:08:02;16.30;;;3.33;;
32734;SDS011;19112;51.076;3.706;2023-12-29T02:10:43;23.05;;;3.30;;
32734;SDS011;19112;51.076;3.706;2023-12-29T02:13:15;19.13;;;3.10;;
32734;SDS011;19112;51.076;3.706;2023-12-29T02:15:41;17.15;;;2.63;;
32734;SDS011;19112;51.076;3.706;2023-12-29T02:25:34;27.23;;;3.30;;
32734;SDS011;19112;51.076;3.706;2023-12-29T02:29:07;16.75;;;2.83;;
32734;SDS011;19112;51.076;3.706;2023-12-29T02:32:03;13.27;;;3.15;;
32734;SDS011;19112;51.076;3.706;2023-12-29T02:43:17;19.58;;;2.67;;
32734;SDS011;19112;51.076;3.706;2023-12-29T02:45:46;18.20;;;2.90;;
32734;SDS011;19112;51.076;3.706;2023-12-29T02:48:22;21.80;;;3.65;;
32734;SDS011;19112;51.076;3.706;2023-12-29T02:50:54;15.75;;;2.88;;
32734;SDS011;19112;51.076;3.706;2023-12-29T02:53:20;16.42;;;2.97;;
32734;SDS011;19112;51.076;3.706;2023-12-29T02:55:53;16.50;;;3.13;;
32734;SDS011;19112;51.076;3.706;2023-12-29T02:58:48;23.98;;;3.80;;
32734;SDS011;19112;51.076;3.706;2023-12-29T03:01:41;16.95;;;3.00;;
32734;SDS011;19112;51.076;3.706;2023-12-29T03:04:10;18.15;;;3.42;;
32734;SDS011;19112;51.076;3.706;2023-12-29T03:09:36;18.83;;;3.00;;
32734;SDS011;19112;51.076;3.706;2023-12-29T03:12:02;17.77;;;2.70;;
32734;SDS011;19112;51.076;3.706;2023-12-29T03:17:31;22.50;;;3.15;;
32734;SDS011;19112;51.076;3.706;2023-12-29T03:19:58;20.55;;;3.17;;
32734;SDS011;19112;51.076;3.706;2023-12-29T03:22:57;21.27;;;2.97;;
32734;SDS011;19112;51.076;3.706;2023-12-29T03:25:35;21.67;;;3.25;;
32734;SDS011;19112;51.076;3.706;2023-12-29T03:28:11;16.60;;;3.10;;
32734;SDS011;19112;51.076;3.706;2023-12-29T03:31:03;20.60;;;3.15;;
32734;SDS011;19112;51.076;3.706;2023-12-29T03:34:26;22.35;;;3.15;;
32734;SDS011;19112;51.076;3.706;2023-12-29T03:36:56;16.65;;;3.15;;
32734;SDS011;19112;51.076;3.706;2023-12-29T03:39:26;28.88;;;3.40;;
32734;SDS011;19112;51.076;3.706;2023-12-29T03:42:16;20.67;;;3.65;;
32734;SDS011;19112;51.076;3.706;2023-12-29T03:44:47;19.45;;;3.45;;
32734;SDS011;19112;51.076;3.706;2023-12-29T03:47:25;16.65;;;3.15;;
32734;SDS011;19112;51.076;3.706;2023-12-29T03:52:37;22.70;;;3.10;;
32734;SDS011;19112;51.076;3.706;2023-12-29T03:55:36;14.88;;;2.58;;
32734;SDS011;19112;51.076;3.706;2023-12-29T03:58:27;21.30;;;3.58;;
32734;SDS011;19112;51.076;3.706;2023-12-29T04:00:55;17.60;;;3.15;;
32734;SDS011;19112;51.076;3.706;2023-12-29T04:03:22;25.15;;;5.50;;
32734;SDS011;19112;51.076;3.706;2023-12-29T04:05:54;23.02;;;3.08;;
32734;SDS011;19112;51.076;3.706;2023-12-29T04:08:22;21.08;;;3.17;;
32734;SDS011;19112;51.076;3.706;2023-12-29T04:18:43;20.73;;;3.30;;
32734;SDS011;19112;51.076;3.706;2023-12-29T04:21:15;21.13;;;3.50;;
32734;SDS011;19112;51.076;3.706;2023-12-29T04:23:51;20.48;;;3.17;;
32734;SDS011;19112;51.076;3.706;2023-12-29T04:26:25;15.73;;;2.70;;
32734;SDS011;19112;51.076;3.706;2023-12-29T04:28:55;9.32;;;2.85;;
32734;SDS011;19112;51.076;3.706;2023-12-29T04:31:51;17.20;;;2.95;;
32734;SDS011;19112;51.076;3.706;2023-12-29T04:34:22;20.42;;;3.15;;
32734;SDS011;19112;51.076;3.706;2023-12-29T04:36:55;19.08;;;3.20;;
32734;SDS011;19112;51.076;3.706;2023-12-29T04:39:34;13.95;;;2.78;;
32734;SDS011;19112;51.076;3.706;2023-12-29T04:42:20;18.90;;;3.40;;
32734;SDS011;19112;51.076;3.706;2023-12-29T04:44:56;16.65;;;3.22;;
32734;SDS011;19112;51.076;3.706;2023-12-29T04:47:23;16.50;;;3.03;;
32734;SDS011;19112;51.076;3.706;2023-12-29T04:49:55;20.13;;;4.57;;
32734;SDS011;19112;51.076;3.706;2023-12-29T04:52:28;18.38;;;2.70;;
32734;SDS011;19112;51.076;3.706;2023-12-29T04:54:55;20.65;;;3.10;;
32734;SDS011;19112;51.076;3.706;2023-12-29T04:57:30;18.55;;;3.25;;
32734;SDS011;19112;51.076;3.706;2023-12-29T05:03:00;17.90;;;2.90;;
32734;SDS011;19112;51.076;3.706;2023-12-29T05:05:45;24.73;;;3.80;;
32734;SDS011;19112;51.076;3.706;2023-12-29T05:08:32;20.40;;;2.90;;
32734;SDS011;19112;51.076;3.706;2023-12-29T05:10:59;17.92;;;3.47;;
32734;SDS011;19112;51.076;3.706;2023-12-29T05:13:31;18.02;;;2.90;;
32734;SDS011;19112;51.076;3.706;2023-12-29T05:16:09;15.15;;;3.08;;
32734;SDS011;19112;51.076;3.706;2023-12-29T05:18:35;21.95;;;3.33;;
32734;SDS011;19112;51.076;3.706;2023-12-29T05:21:18;23.48;;;3.55;;
32734;SDS011;19112;51.076;3.706;2023-12-29T05:27:01;16.33;;;3.10;;
32734;SDS011;19112;51.076;3.706;2023-12-29T05:29:31;18.70;;;3.08;;
32734;SDS011;19112;51.076;3.706;2023-12-29T05:32:01;18.60;;;4.10;;
32734;SDS011;19112;51.076;3.706;2023-12-29T05:35:25;15.77;;;3.40;;
32734;SDS011;19112;51.076;3.706;2023-12-29T05:41:02;17.70;;;3.25;;
32734;SDS011;19112;51.076;3.706;2023-12-29T05:43:54;17.92;;;3.60;;
32734;SDS011;19112;51.076;3.706;2023-12-29T05:46:39;16.77;;;3.13;;
32734;SDS011;19112;51.076;3.706;2023-12-29T05:49:26;20.73;;;3.47;;
32734;SDS011;19112;51.076;3.706;2023-12-29T05:52:05;14.50;;;2.83;;
32734;SDS011;19112;51.076;3.706;2023-12-29T05:54:37;13.70;;;2.97;;
32734;SDS011;19112;51.076;3.706;2023-12-29T05:57:09;15.27;;;2.97;;
32734;SDS011;19112;51.076;3.706;2023-12-29T06:02:36;22.25;;;3.10;;
32734;SDS011;19112;51.076;3.706;2023-12-29T06:05:17;18.33;;;3.38;;
32734;SDS011;19112;51.076;3.706;2023-12-29T06:08:02;25.48;;;3.35;;
32734;SDS011;19112;51.076;3.706;2023-12-29T06:10:48;15.55;;;3.25;;
32734;SDS011;19112;51.076;3.706;2023-12-29T06:14:07;13.15;;;2.67;;
32734;SDS011;19112;51.076;3.706;2023-12-29T06:17:17;23.38;;;3.65;;
32734;SDS011;19112;51.076;3.706;2023-12-29T06:20:11;13.40;;;2.95;;
32734;SDS011;19112;51.076;3.706;2023-12-29T06:23:14;19.23;;;3.35;;
32734;SDS011;19112;51.076;3.706;2023-12-29T06:26:13;16.52;;;3.33;;
32734;SDS011;19112;51.076;3.706;2023-12-29T06:28:57;11.55;;;2.60;;
32734;SDS011;19112;51.076;3.706;2023-12-29T06:31:39;21.20;;;4.63;;
32734;SDS011;19112;51.076;3.706;2023-12-29T06:34:16;17.25;;;2.85;;
32734;SDS011;19112;51.076;3.706;2023-12-29T06:36:53;14.95;;;2.58;;
32734;SDS011;19112;51.076;3.706;2023-12-29T06:39:37;19.30;;;2.67;;
32734;SDS011;19112;51.076;3.706;2023-12-29T06:42:41;13.57;;;2.95;;
32734;SDS011;19112;51.076;3.706;2023-12-29T06:51:42;16.23;;;2.83;;
32734;SDS011;19112;51.076;3.706;2023-12-29T06:54:18;15.45;;;2.80;;
32734;SDS011;19112;51.076;3.706;2023-12-29T06:59:39;13.60;;;2.40;;
32734;SDS011;19112;51.076;3.706;2023-12-29T07:02:24;8.18;;;2.20;;
32734;SDS011;19112;51.076;3.706;2023-12-29T07:05:22;11.00;;;2.50;;
32734;SDS011;19112;51.076;3.706;2023-12-29T07:08:28;12.63;;;3.05;;
32734;SDS011;19112;51.076;3.706;2023-12-29T07:14:07;11.57;;;2.60;;
32734;SDS011;19112;51.076;3.706;2023-12-29T07:16:50;10.93;;;2.00;;
32734;SDS011;19112;51.076;3.706;2023-12-29T07:19:20;13.82;;;2.28;;
32734;SDS011;19112;51.076;3.706;2023-12-29T07:25:19;6.32;;;1.73;;
32734;SDS011;19112;51.076;3.706;2023-12-29T07:28:03;12.30;;;2.40;;
32734;SDS011;19112;51.076;3.706;2023-12-29T07:30:42;5.38;;;1.52;;
32734;SDS011;19112;51.076;3.706;2023-12-29T07:37:30;4.30;;;1.13;;
32734;SDS011;19112;51.076;3.706;2023-12-29T07:41:04;9.20;;;1.35;;
32734;SDS011;19112;51.076;3.706;2023-12-29T07:44:48;9.07;;;0.95;;
32734;SDS011;19112;51.076;3.706;2023-12-29T07:47:48;5.28;;;0.82;;
32734;SDS011;19112;51.076;3.706;2023-12-29T07:50:40;7.72;;;1.48;;
32734;SDS011;19112;51.076;3.706;2023-12-29T07:53:31;5.38;;;1.45;;
32734;SDS011;19112;51.076;3.706;2023-12-29T07:56:03;5.40;;;1.05;;
32734;SDS011;19112;51.076;3.706;2023-12-29T08:02:09;2.90;;;0.70;;
32734;SDS011;19112;51.076;3.706;2023-12-29T08:08:17;6.70;;;1.40;;
32734;SDS011;19112;51.076;3.706;2023-12-29T08:11:51;3.60;;;0.90;;
32734;SDS011;19112;51.076;3.706;2023-12-29T08:18:33;1.77;;;1.00;;
32734;SDS011;19112;51.076;3.706;2023-12-29T08:22:11;6.55;;;1.60;;
32734;SDS011;19112;51.076;3.706;2023-12-29T08:26:03;1.42;;;0.85;;
32734;SDS011;19112;51.076;3.706;2023-12-29T08:32:39;4.15;;;1.65;;
32734;SDS011;19112;51.076;3.706;2023-12-29T08:36:17;4.25;;;1.63;;
32734;SDS011;19112;51.076;3.706;2023-12-29T08:40:08;5.78;;;2.40;;
32734;SDS011;19112;51.076;3.706;2023-12-29T08:44:03;9.10;;;1.73;;
32734;SDS011;19112;51.076;3.706;2023-12-29T09:19:38;10.80;;;2.00;;
32734;SDS011;19112;51.076;3.706;2023-12-29T09:45:37;8.43;;;1.50;;
32734;SDS011;19112;51.076;3.706;2023-12-29T09:48:27;6.35;;;1.33;;
32734;SDS011;19112;51.076;3.706;2023-12-29T09:57:53;4.15;;;0.95;;
32734;SDS011;19112;51.076;3.706;2023-12-29T10:05:09;9.55;;;1.35;;
32734;SDS011;19112;51.076;3.706;2023-12-29T10:14:31;8.38;;;1.55;;
32734;SDS011;19112;51.076;3.706;2023-12-29T10:23:21;5.32;;;1.55;;
32734;SDS011;19112;51.076;3.706;2023-12-29T10:25:58;7.53;;;1.63;;
32734;SDS011;19112;51.076;3.706;2023-12-29T10:28:24;9.02;;;2.10;;
32734;SDS011;19112;51.076;3.706;2023-12-29T10:30:51;16.02;;;2.63;;
32734;SDS011;19112;51.076;3.706;2023-12-29T10:33:20;8.65;;;2.42;;
32734;SDS011;19112;51.076;3.706;2023-12-29T10:38:38;11.55;;;2.67;;
32734;SDS011;19112;51.076;3.706;2023-12-29T10:41:13;13.63;;;3.40;;
32734;SDS011;19112;51.076;3.706;2023-12-29T10:43:41;16.25;;;3.30;;
32734;SDS011;19112;51.076;3.706;2023-12-29T10:46:10;17.15;;;3.28;;
32734;SDS011;19112;51.076;3.706;2023-12-29T10:48:40;14.75;;;2.78;;
32734;SDS011;19112;51.076;3.706;2023-12-29T10:51:06;16.50;;;4.15;;
32734;SDS011;19112;51.076;3.706;2023-12-29T10:53:35;15.43;;;3.40;;
32734;SDS011;19112;51.076;3.706;2023-12-29T10:56:22;10.98;;;2.90;;
32734;SDS011;19112;51.076;3.706;2023-12-29T10:59:02;18.75;;;3.67;;
32734;SDS011;19112;51.076;3.706;2023-12-29T11:09:35;17.15;;;3.15;;
32734;SDS011;19112;51.076;3.706;2023-12-29T11:14:56;14.80;;;3.13;;
32734;SDS011;19112;51.076;3.706;2023-12-29T11:17:43;14.57;;;3.10;;
32734;SDS011;19112;51.076;3.706;2023-12-29T11:20:29;10.45;;;3.10;;
32734;SDS011;19112;51.076;3.706;2023-12-29T11:23:22;13.30;;;3.85;;
32734;SDS011;19112;51.076;3.706;2023-12-29T11:25:47;19.38;;;3.95;;
32734;SDS011;19112;51.076;3.706;2023-12-29T11:28:14;12.07;;;2.92;;
32734;SDS011;19112;51.076;3.706;2023-12-29T11:31:07;18.15;;;4.32;;
32734;SDS011;19112;51.076;3.706;2023-12-29T12:43:36;7.05;;;2.15;;
32734;SDS011;19112;51.076;3.706;2023-12-29T12:47:49;5.50;;;1.52;;
32734;SDS011;19112;51.076;3.706;2023-12-29T12:51:35;4.47;;;0.98;;
32734;SDS011;19112;51.076;3.706;2023-12-29T12:55:32;6.70;;;1.52;;
32734;SDS011;19112;51.076;3.706;2023-12-29T13:06:20;5.55;;;1.88;;
32734;SDS011;19112;51.076;3.706;2023-12-29T13:10:09;6.30;;;1.67;;
32734;SDS011;19112;51.076;3.706;2023-12-29T13:17:28;6.40;;;1.90;;
32734;SDS011;19112;51.076;3.706;2023-12-29T13:21:00;12.52;;;2.40;;
32734;SDS011;19112;51.076;3.706;2023-12-29T13:24:09;7.15;;;2.03;;
32734;SDS011;19112;51.076;3.706;2023-12-29T13:31:40;36.28;;;2.53;;
32734;SDS011;19112;51.076;3.706;2023-12-29T13:35:23;10.73;;;2.17;;
32734;SDS011;19112;51.076;3.706;2023-12-29T13:39:16;6.72;;;2.10;;
32734;SDS011;19112;51.076;3.706;2023-12-29T13:51:48;10.10;;;2.65;;
32734;SDS011;19112;51.076;3.706;2023-12-29T14:11:59;10.10;;;1.85;;
32734;SDS011;19112;51.076;3.706;2023-12-29T14:15:57;6.55;;;2.03;;
32734;SDS011;19112;51.076;3.706;2023-12-29T14:26:59;10.70;;;2.80;;
32734;SDS011;19112;51.076;3.706;2023-12-29T14:29:55;8.65;;;2.15;;
32734;SDS011;19112;51.076;3.706;2023-12-29T14:37:06;10.80;;;2.25;;
32734;SDS011;19112;51.076;3.706;2023-12-29T15:12:48;14.45;;;3.03;;
